Terminal Aerodrome Forecast
Issued by NWS Pueblo, CO

Home | Current Version | Previous Version | Text Only | Print | Product List | Glossary On
Versions: 1 2 3 4 5 6 7 8 9 10 11 12 13 14 15 16 17 18 19 20 21 22 23 24 25 26 27 28 29 30 31 32 33 34 35 36 37 38 39 40 41 42 43 44 45 46 47 48 49 50
000
FTUS45 KPUB 191003 AAA
TAFCOS
TAF AMD
KCOS 191003Z 1910/2006 36009KT P6SM SCT080
     FM191700 14015G25KT P6SM FEW015 BKN080
     FM192200 18020G30KT P6SM FEW015 BKN080
     FM200200 17015KT P6SM BKN080=

USA.gov is the U.S. government's official web portal to all federal, state and local government web resources and services.